sensor_id;sensor_type;location;lat;lon;timestamp;P1;durP1;ratioP1;P2;durP2;ratioP2
13048;SDS011;6591;51.446;5.404;2023-02-26T00:01:39;4.50;;;2.30;;
13048;SDS011;6591;51.446;5.404;2023-02-26T00:04:07;6.17;;;2.63;;
13048;SDS011;6591;51.446;5.404;2023-02-26T00:06:37;5.53;;;3.17;;
13048;SDS011;6591;51.446;5.404;2023-02-26T00:09:18;3.83;;;2.37;;
13048;SDS011;6591;51.446;5.404;2023-02-26T00:11:45;6.23;;;2.97;;
13048;SDS011;6591;51.446;5.404;2023-02-26T00:14:14;5.17;;;3.00;;
13048;SDS011;6591;51.446;5.404;2023-02-26T00:16:42;7.60;;;3.10;;
13048;SDS011;6591;51.446;5.404;2023-02-26T00:19:20;6.57;;;3.30;;
13048;SDS011;6591;51.446;5.404;2023-02-26T00:21:47;5.17;;;2.90;;
13048;SDS011;6591;51.446;5.404;2023-02-26T00:24:14;7.20;;;2.70;;
13048;SDS011;6591;51.446;5.404;2023-02-26T00:26:41;4.93;;;2.90;;
13048;SDS011;6591;51.446;5.404;2023-02-26T00:29:08;7.83;;;3.00;;
13048;SDS011;6591;51.446;5.404;2023-02-26T00:31:36;5.57;;;3.23;;
13048;SDS011;6591;51.446;5.404;2023-02-26T00:34:03;6.30;;;3.33;;
13048;SDS011;6591;51.446;5.404;2023-02-26T00:36:50;5.93;;;3.60;;
13048;SDS011;6591;51.446;5.404;2023-02-26T00:42:41;7.07;;;3.40;;
13048;SDS011;6591;51.446;5.404;2023-02-26T00:45:08;7.43;;;3.40;;
13048;SDS011;6591;51.446;5.404;2023-02-26T00:50:18;8.20;;;3.20;;
13048;SDS011;6591;51.446;5.404;2023-02-26T00:52:51;8.27;;;4.10;;
13048;SDS011;6591;51.446;5.404;2023-02-26T00:55:40;6.60;;;3.60;;
13048;SDS011;6591;51.446;5.404;2023-02-26T00:58:07;7.50;;;3.80;;
13048;SDS011;6591;51.446;5.404;2023-02-26T01:00:34;10.23;;;3.80;;
13048;SDS011;6591;51.446;5.404;2023-02-26T01:03:01;7.93;;;3.70;;
13048;SDS011;6591;51.446;5.404;2023-02-26T01:05:29;7.40;;;4.10;;
13048;SDS011;6591;51.446;5.404;2023-02-26T01:08:11;7.37;;;3.80;;
13048;SDS011;6591;51.446;5.404;2023-02-26T01:10:54;10.57;;;3.73;;
13048;SDS011;6591;51.446;5.404;2023-02-26T01:13:21;10.40;;;4.47;;
13048;SDS011;6591;51.446;5.404;2023-02-26T01:15:50;6.70;;;3.83;;
13048;SDS011;6591;51.446;5.404;2023-02-26T01:18:32;8.83;;;4.23;;
13048;SDS011;6591;51.446;5.404;2023-02-26T01:21:20;9.53;;;4.40;;
13048;SDS011;6591;51.446;5.404;2023-02-26T01:23:58;8.43;;;3.63;;
13048;SDS011;6591;51.446;5.404;2023-02-26T01:26:32;5.37;;;3.37;;
13048;SDS011;6591;51.446;5.404;2023-02-26T01:28:59;9.33;;;3.43;;
13048;SDS011;6591;51.446;5.404;2023-02-26T01:36:57;7.73;;;3.33;;
13048;SDS011;6591;51.446;5.404;2023-02-26T01:39:53;8.50;;;3.93;;
13048;SDS011;6591;51.446;5.404;2023-02-26T01:42:52;9.57;;;3.50;;
13048;SDS011;6591;51.446;5.404;2023-02-26T01:45:32;6.67;;;3.33;;
13048;SDS011;6591;51.446;5.404;2023-02-26T01:48:17;7.63;;;3.90;;
13048;SDS011;6591;51.446;5.404;2023-02-26T01:51:03;8.60;;;3.60;;
13048;SDS011;6591;51.446;5.404;2023-02-26T01:53:31;7.33;;;3.33;;
13048;SDS011;6591;51.446;5.404;2023-02-26T01:56:01;6.63;;;3.73;;
13048;SDS011;6591;51.446;5.404;2023-02-26T01:58:36;8.50;;;3.30;;
13048;SDS011;6591;51.446;5.404;2023-02-26T02:01:04;6.47;;;3.17;;
13048;SDS011;6591;51.446;5.404;2023-02-26T02:03:34;9.07;;;3.57;;
13048;SDS011;6591;51.446;5.404;2023-02-26T02:06:11;7.37;;;3.60;;
13048;SDS011;6591;51.446;5.404;2023-02-26T02:08:46;8.77;;;3.37;;
13048;SDS011;6591;51.446;5.404;2023-02-26T02:11:14;8.27;;;3.30;;
13048;SDS011;6591;51.446;5.404;2023-02-26T02:32:13;10.50;;;2.83;;
13048;SDS011;6591;51.446;5.404;2023-02-26T02:37:38;4.43;;;2.70;;
13048;SDS011;6591;51.446;5.404;2023-02-26T02:40:34;5.17;;;2.23;;
13048;SDS011;6591;51.446;5.404;2023-02-26T02:43:09;4.17;;;2.80;;
13048;SDS011;6591;51.446;5.404;2023-02-26T02:48:41;4.87;;;2.30;;
13048;SDS011;6591;51.446;5.404;2023-02-26T02:51:26;8.57;;;3.07;;
13048;SDS011;6591;51.446;5.404;2023-02-26T02:54:07;7.70;;;2.60;;
13048;SDS011;6591;51.446;5.404;2023-02-26T02:56:45;5.67;;;2.60;;
13048;SDS011;6591;51.446;5.404;2023-02-26T03:05:31;6.27;;;2.10;;
13048;SDS011;6591;51.446;5.404;2023-02-26T03:08:04;3.90;;;2.07;;
13048;SDS011;6591;51.446;5.404;2023-02-26T03:10:36;6.37;;;2.67;;
13048;SDS011;6591;51.446;5.404;2023-02-26T03:13:04;14.33;;;2.47;;
13048;SDS011;6591;51.446;5.404;2023-02-26T03:21:34;6.77;;;2.43;;
13048;SDS011;6591;51.446;5.404;2023-02-26T03:28:19;6.00;;;2.97;;
13048;SDS011;6591;51.446;5.404;2023-02-26T03:34:12;5.93;;;2.30;;
13048;SDS011;6591;51.446;5.404;2023-02-26T03:36:56;6.20;;;2.27;;
13048;SDS011;6591;51.446;5.404;2023-02-26T03:39:37;4.03;;;2.00;;
13048;SDS011;6591;51.446;5.404;2023-02-26T03:45:20;5.03;;;1.93;;
13048;SDS011;6591;51.446;5.404;2023-02-26T03:47:54;3.43;;;1.60;;
13048;SDS011;6591;51.446;5.404;2023-02-26T03:50:36;4.60;;;1.87;;
13048;SDS011;6591;51.446;5.404;2023-02-26T03:53:23;4.10;;;2.27;;
13048;SDS011;6591;51.446;5.404;2023-02-26T03:56:04;4.77;;;2.20;;
13048;SDS011;6591;51.446;5.404;2023-02-26T03:59:00;5.37;;;2.10;;
13048;SDS011;6591;51.446;5.404;2023-02-26T04:02:17;4.10;;;1.90;;
13048;SDS011;6591;51.446;5.404;2023-02-26T04:04:52;5.73;;;2.00;;
13048;SDS011;6591;51.446;5.404;2023-02-26T04:07:46;6.10;;;2.37;;
13048;SDS011;6591;51.446;5.404;2023-02-26T04:10:16;9.13;;;2.40;;
13048;SDS011;6591;51.446;5.404;2023-02-26T04:12:47;8.20;;;2.67;;
13048;SDS011;6591;51.446;5.404;2023-02-26T04:15:14;4.90;;;2.00;;
13048;SDS011;6591;51.446;5.404;2023-02-26T04:17:41;5.87;;;2.20;;
13048;SDS011;6591;51.446;5.404;2023-02-26T04:20:09;7.00;;;2.43;;
13048;SDS011;6591;51.446;5.404;2023-02-26T04:22:37;6.50;;;2.20;;
13048;SDS011;6591;51.446;5.404;2023-02-26T04:25:04;4.13;;;2.00;;
13048;SDS011;6591;51.446;5.404;2023-02-26T04:27:32;5.40;;;2.40;;
13048;SDS011;6591;51.446;5.404;2023-02-26T04:30:02;7.20;;;2.00;;
13048;SDS011;6591;51.446;5.404;2023-02-26T04:32:31;6.07;;;2.10;;
13048;SDS011;6591;51.446;5.404;2023-02-26T04:34:59;4.23;;;2.30;;
13048;SDS011;6591;51.446;5.404;2023-02-26T04:37:26;4.57;;;2.20;;
13048;SDS011;6591;51.446;5.404;2023-02-26T04:39:54;4.20;;;2.20;;
13048;SDS011;6591;51.446;5.404;2023-02-26T04:42:21;5.53;;;2.10;;
13048;SDS011;6591;51.446;5.404;2023-02-26T04:44:48;6.87;;;1.80;;
13048;SDS011;6591;51.446;5.404;2023-02-26T04:47:15;6.70;;;2.13;;
13048;SDS011;6591;51.446;5.404;2023-02-26T04:49:42;3.03;;;1.70;;
13048;SDS011;6591;51.446;5.404;2023-02-26T04:52:10;3.97;;;2.07;;
13048;SDS011;6591;51.446;5.404;2023-02-26T04:54:37;6.13;;;2.37;;
13048;SDS011;6591;51.446;5.404;2023-02-26T04:57:07;7.03;;;2.57;;
13048;SDS011;6591;51.446;5.404;2023-02-26T04:59:35;4.70;;;1.80;;
13048;SDS011;6591;51.446;5.404;2023-02-26T05:02:04;2.23;;;1.83;;
13048;SDS011;6591;51.446;5.404;2023-02-26T05:04:37;7.57;;;2.23;;
13048;SDS011;6591;51.446;5.404;2023-02-26T05:07:04;6.40;;;2.37;;
13048;SDS011;6591;51.446;5.404;2023-02-26T05:09:31;9.07;;;2.67;;
13048;SDS011;6591;51.446;5.404;2023-02-26T05:11:58;4.63;;;1.97;;
13048;SDS011;6591;51.446;5.404;2023-02-26T05:14:26;3.67;;;1.80;;
13048;SDS011;6591;51.446;5.404;2023-02-26T05:16:53;4.90;;;1.93;;
13048;SDS011;6591;51.446;5.404;2023-02-26T05:19:21;6.83;;;2.00;;
13048;SDS011;6591;51.446;5.404;2023-02-26T05:21:50;7.17;;;2.20;;
13048;SDS011;6591;51.446;5.404;2023-02-26T05:24:17;4.67;;;2.00;;
13048;SDS011;6591;51.446;5.404;2023-02-26T05:26:44;6.07;;;2.30;;
13048;SDS011;6591;51.446;5.404;2023-02-26T05:29:12;4.77;;;2.03;;
13048;SDS011;6591;51.446;5.404;2023-02-26T05:31:42;5.03;;;2.37;;
13048;SDS011;6591;51.446;5.404;2023-02-26T05:34:09;5.93;;;2.33;;
13048;SDS011;6591;51.446;5.404;2023-02-26T05:36:36;3.90;;;1.87;;
13048;SDS011;6591;51.446;5.404;2023-02-26T05:39:04;6.27;;;2.07;;
13048;SDS011;6591;51.446;5.404;2023-02-26T05:41:32;4.67;;;2.13;;
13048;SDS011;6591;51.446;5.404;2023-02-26T05:43:59;9.07;;;1.90;;
13048;SDS011;6591;51.446;5.404;2023-02-26T05:46:26;5.27;;;1.93;;
13048;SDS011;6591;51.446;5.404;2023-02-26T05:48:53;6.43;;;2.40;;
13048;SDS011;6591;51.446;5.404;2023-02-26T05:51:20;4.07;;;1.80;;
13048;SDS011;6591;51.446;5.404;2023-02-26T05:53:47;5.63;;;1.70;;
13048;SDS011;6591;51.446;5.404;2023-02-26T05:56:14;5.67;;;1.70;;
13048;SDS011;6591;51.446;5.404;2023-02-26T05:58:43;4.00;;;1.73;;
13048;SDS011;6591;51.446;5.404;2023-02-26T06:01:10;5.93;;;1.90;;
13048;SDS011;6591;51.446;5.404;2023-02-26T06:03:37;3.20;;;1.70;;
13048;SDS011;6591;51.446;5.404;2023-02-26T06:06:10;5.37;;;1.57;;
13048;SDS011;6591;51.446;5.404;2023-02-26T06:08:38;4.67;;;1.43;;
13048;SDS011;6591;51.446;5.404;2023-02-26T06:11:05;4.17;;;1.70;;
13048;SDS011;6591;51.446;5.404;2023-02-26T06:13:32;3.93;;;1.80;;
13048;SDS011;6591;51.446;5.404;2023-02-26T06:16:03;5.73;;;1.83;;
13048;SDS011;6591;51.446;5.404;2023-02-26T06:18:30;6.63;;;2.00;;
13048;SDS011;6591;51.446;5.404;2023-02-26T06:21:00;3.07;;;1.67;;
13048;SDS011;6591;51.446;5.404;2023-02-26T06:23:27;5.67;;;1.80;;
13048;SDS011;6591;51.446;5.404;2023-02-26T06:25:54;3.93;;;1.50;;
13048;SDS011;6591;51.446;5.404;2023-02-26T06:28:21;6.37;;;1.90;;
13048;SDS011;6591;51.446;5.404;2023-02-26T06:30:51;7.17;;;2.00;;
13048;SDS011;6591;51.446;5.404;2023-02-26T06:33:19;3.40;;;1.60;;
13048;SDS011;6591;51.446;5.404;2023-02-26T06:35:46;2.23;;;1.50;;
13048;SDS011;6591;51.446;5.404;2023-02-26T06:38:13;3.47;;;1.40;;
13048;SDS011;6591;51.446;5.404;2023-02-26T06:40:41;4.17;;;1.80;;
13048;SDS011;6591;51.446;5.404;2023-02-26T06:43:08;2.20;;;1.60;;
13048;SDS011;6591;51.446;5.404;2023-02-26T06:45:36;9.43;;;1.53;;
13048;SDS011;6591;51.446;5.404;2023-02-26T06:48:03;2.50;;;1.60;;
13048;SDS011;6591;51.446;5.404;2023-02-26T06:50:30;7.03;;;2.00;;
13048;SDS011;6591;51.446;5.404;2023-02-26T06:52:57;3.03;;;1.60;;
13048;SDS011;6591;51.446;5.404;2023-02-26T06:55:24;4.53;;;1.80;;
13048;SDS011;6591;51.446;5.404;2023-02-26T06:57:55;4.00;;;1.87;;
13048;SDS011;6591;51.446;5.404;2023-02-26T07:00:24;4.53;;;1.87;;
13048;SDS011;6591;51.446;5.404;2023-02-26T07:02:52;6.40;;;1.97;;
13048;SDS011;6591;51.446;5.404;2023-02-26T07:05:19;6.33;;;1.80;;
13048;SDS011;6591;51.446;5.404;2023-02-26T07:07:47;3.37;;;1.87;;
13048;SDS011;6591;51.446;5.404;2023-02-26T07:10:14;5.67;;;1.63;;
13048;SDS011;6591;51.446;5.404;2023-02-26T07:12:41;3.17;;;1.83;;
13048;SDS011;6591;51.446;5.404;2023-02-26T07:15:08;7.40;;;2.00;;
13048;SDS011;6591;51.446;5.404;2023-02-26T07:17:35;3.07;;;1.53;;
13048;SDS011;6591;51.446;5.404;2023-02-26T07:20:03;5.97;;;1.70;;
13048;SDS011;6591;51.446;5.404;2023-02-26T07:22:31;4.03;;;2.00;;
13048;SDS011;6591;51.446;5.404;2023-02-26T07:24:59;5.33;;;1.80;;
13048;SDS011;6591;51.446;5.404;2023-02-26T07:27:26;2.80;;;1.70;;
13048;SDS011;6591;51.446;5.404;2023-02-26T07:29:55;3.33;;;1.70;;
13048;SDS011;6591;51.446;5.404;2023-02-26T07:32:22;4.67;;;1.80;;
13048;SDS011;6591;51.446;5.404;2023-02-26T07:34:51;4.80;;;1.50;;
13048;SDS011;6591;51.446;5.404;2023-02-26T07:37:18;7.20;;;1.63;;
13048;SDS011;6591;51.446;5.404;2023-02-26T07:39:45;4.10;;;1.53;;
13048;SDS011;6591;51.446;5.404;2023-02-26T07:42:12;5.00;;;1.60;;
13048;SDS011;6591;51.446;5.404;2023-02-26T07:44:40;2.93;;;1.47;;
13048;SDS011;6591;51.446;5.404;2023-02-26T07:47:08;4.23;;;1.60;;
13048;SDS011;6591;51.446;5.404;2023-02-26T07:49:36;4.67;;;1.90;;
13048;SDS011;6591;51.446;5.404;2023-02-26T07:52:03;5.10;;;1.50;;
13048;SDS011;6591;51.446;5.404;2023-02-26T07:54:33;3.77;;;1.63;;
13048;SDS011;6591;51.446;5.404;2023-02-26T07:57:04;3.13;;;1.50;;
13048;SDS011;6591;51.446;5.404;2023-02-26T07:59:31;3.93;;;1.60;;
13048;SDS011;6591;51.446;5.404;2023-02-26T08:01:58;6.33;;;1.73;;
13048;SDS011;6591;51.446;5.404;2023-02-26T08:04:25;3.77;;;1.37;;
13048;SDS011;6591;51.446;5.404;2023-02-26T08:06:53;5.37;;;1.50;;
13048;SDS011;6591;51.446;5.404;2023-02-26T08:09:21;4.30;;;1.40;;
13048;SDS011;6591;51.446;5.404;2023-02-26T08:11:51;2.93;;;1.40;;
13048;SDS011;6591;51.446;5.404;2023-02-26T08:14:18;3.87;;;2.00;;
13048;SDS011;6591;51.446;5.404;2023-02-26T08:16:45;6.30;;;1.73;;
13048;SDS011;6591;51.446;5.404;2023-02-26T08:19:12;4.50;;;1.30;;
13048;SDS011;6591;51.446;5.404;2023-02-26T08:21:39;4.17;;;1.43;;
13048;SDS011;6591;51.446;5.404;2023-02-26T08:24:06;7.10;;;1.50;;
13048;SDS011;6591;51.446;5.404;2023-02-26T08:26:34;8.70;;;1.97;;
13048;SDS011;6591;51.446;5.404;2023-02-26T08:29:02;4.00;;;1.43;;
13048;SDS011;6591;51.446;5.404;2023-02-26T08:31:31;5.80;;;1.60;;
13048;SDS011;6591;51.446;5.404;2023-02-26T08:34:00;4.93;;;1.73;;
13048;SDS011;6591;51.446;5.404;2023-02-26T08:36:28;3.00;;;1.30;;
13048;SDS011;6591;51.446;5.404;2023-02-26T08:38:56;5.43;;;1.50;;
13048;SDS011;6591;51.446;5.404;2023-02-26T08:41:24;4.27;;;1.40;;
13048;SDS011;6591;51.446;5.404;2023-02-26T08:43:54;6.30;;;1.90;;
13048;SDS011;6591;51.446;5.404;2023-02-26T08:46:21;4.83;;;1.27;;
13048;SDS011;6591;51.446;5.404;2023-02-26T08:48:49;2.60;;;1.30;;
13048;SDS011;6591;51.446;5.404;2023-02-26T08:51:16;4.50;;;1.40;;
13048;SDS011;6591;51.446;5.404;2023-02-26T08:53:44;5.33;;;1.60;;
13048;SDS011;6591;51.446;5.404;2023-02-26T08:56:12;2.97;;;1.30;;
13048;SDS011;6591;51.446;5.404;2023-02-26T08:58:39;5.37;;;1.67;;
13048;SDS011;6591;51.446;5.404;2023-02-26T09:01:06;3.13;;;1.30;;
13048;SDS011;6591;51.446;5.404;2023-02-26T09:03:33;4.87;;;1.97;;
13048;SDS011;6591;51.446;5.404;2023-02-26T09:06:02;3.13;;;1.67;;
13048;SDS011;6591;51.446;5.404;2023-02-26T09:08:30;3.73;;;1.60;;
13048;SDS011;6591;51.446;5.404;2023-02-26T09:11:00;3.20;;;1.33;;
13048;SDS011;6591;51.446;5.404;2023-02-26T09:13:29;4.10;;;1.50;;
13048;SDS011;6591;51.446;5.404;2023-02-26T09:15:56;4.27;;;1.60;;
13048;SDS011;6591;51.446;5.404;2023-02-26T09:18:26;4.53;;;1.57;;
13048;SDS011;6591;51.446;5.404;2023-02-26T09:20:53;3.80;;;1.67;;
13048;SDS011;6591;51.446;5.404;2023-02-26T09:23:21;4.57;;;1.70;;
13048;SDS011;6591;51.446;5.404;2023-02-26T09:25:52;3.77;;;1.50;;
13048;SDS011;6591;51.446;5.404;2023-02-26T09:28:21;4.80;;;1.47;;
13048;SDS011;6591;51.446;5.404;2023-02-26T09:30:50;1.73;;;1.17;;
13048;SDS011;6591;51.446;5.404;2023-02-26T09:33:19;2.37;;;1.33;;
13048;SDS011;6591;51.446;5.404;2023-02-26T09:35:49;5.33;;;1.50;;
13048;SDS011;6591;51.446;5.404;2023-02-26T09:38:17;3.70;;;1.50;;
13048;SDS011;6591;51.446;5.404;2023-02-26T09:40:55;2.57;;;1.20;;
13048;SDS011;6591;51.446;5.404;2023-02-26T09:46:36;3.10;;;1.40;;
13048;SDS011;6591;51.446;5.404;2023-02-26T09:52:34;3.37;;;1.20;;
13048;SDS011;6591;51.446;5.404;2023-02-26T09:55:41;3.33;;;1.30;;
13048;SDS011;6591;51.446;5.404;2023-02-26T09:58:18;6.37;;;1.27;;
13048;SDS011;6591;51.446;5.404;2023-02-26T10:10:28;3.47;;;1.30;;
13048;SDS011;6591;51.446;5.404;2023-02-26T10:13:39;3.80;;;1.27;;
13048;SDS011;6591;51.446;5.404;2023-02-26T10:16:26;3.93;;;1.63;;
13048;SDS011;6591;51.446;5.404;2023-02-26T10:19:17;2.90;;;1.30;;
13048;SDS011;6591;51.446;5.404;2023-02-26T10:21:53;4.10;;;1.37;;
13048;SDS011;6591;51.446;5.404;2023-02-26T10:24:48;4.27;;;1.50;;
13048;SDS011;6591;51.446;5.404;2023-02-26T10:27:35;3.00;;;1.30;;
13048;SDS011;6591;51.446;5.404;2023-02-26T10:33:24;2.00;;;0.97;;
13048;SDS011;6591;51.446;5.404;2023-02-26T10:36:18;2.10;;;1.07;;
13048;SDS011;6591;51.446;5.404;2023-02-26T10:39:01;3.23;;;1.10;;
13048;SDS011;6591;51.446;5.404;2023-02-26T10:41:46;3.87;;;1.20;;
13048;SDS011;6591;51.446;5.404;2023-02-26T10:44:16;3.03;;;1.30;;
13048;SDS011;6591;51.446;5.404;2023-02-26T10:50:11;3.40;;;1.10;;
13048;SDS011;6591;51.446;5.404;2023-02-26T10:52:43;2.07;;;1.00;;
13048;SDS011;6591;51.446;5.404;2023-02-26T10:58:12;2.37;;;1.20;;
13048;SDS011;6591;51.446;5.404;2023-02-26T11:00:51;2.57;;;1.00;;
13048;SDS011;6591;51.446;5.404;2023-02-26T11:05:57;2.97;;;1.00;;
13048;SDS011;6591;51.446;5.404;2023-02-26T11:08:31;1.50;;;1.00;;
13048;SDS011;6591;51.446;5.404;2023-02-26T11:11:07;2.10;;;1.10;;
13048;SDS011;6591;51.446;5.404;2023-02-26T11:13:36;2.50;;;1.00;;
13048;SDS011;6591;51.446;5.404;2023-02-26T11:16:07;2.93;;;1.30;;
13048;SDS011;6591;51.446;5.404;2023-02-26T11:18:42;1.20;;;0.90;;
13048;SDS011;6591;51.446;5.404;2023-02-26T11:21:20;2.57;;;1.07;;
13048;SDS011;6591;51.446;5.404;2023-02-26T11:24:03;3.33;;;1.50;;
13048;SDS011;6591;51.446;5.404;2023-02-26T11:26:38;2.50;;;1.07;;
13048;SDS011;6591;51.446;5.404;2023-02-26T11:29:13;3.00;;;1.07;;
13048;SDS011;6591;51.446;5.404;2023-02-26T11:31:51;2.30;;;0.80;;
13048;SDS011;6591;51.446;5.404;2023-02-26T11:34:26;3.10;;;1.43;;
13048;SDS011;6591;51.446;5.404;2023-02-26T11:36:59;3.07;;;1.27;;
13048;SDS011;6591;51.446;5.404;2023-02-26T11:39:28;3.00;;;0.80;;
13048;SDS011;6591;51.446;5.404;2023-02-26T11:42:02;1.40;;;1.00;;
13048;SDS011;6591;51.446;5.404;2023-02-26T11:44:37;1.40;;;1.00;;
13048;SDS011;6591;51.446;5.404;2023-02-26T11:47:14;1.53;;;1.00;;
13048;SDS011;6591;51.446;5.404;2023-02-26T11:49:52;2.17;;;1.10;;
13048;SDS011;6591;51.446;5.404;2023-02-26T11:52:28;2.00;;;1.13;;
13048;SDS011;6591;51.446;5.404;2023-02-26T11:57:53;2.60;;;1.00;;
13048;SDS011;6591;51.446;5.404;2023-02-26T12:00:28;1.43;;;1.00;;
13048;SDS011;6591;51.446;5.404;2023-02-26T12:03:05;1.63;;;0.90;;
13048;SDS011;6591;51.446;5.404;2023-02-26T12:05:49;1.37;;;0.80;;
13048;SDS011;6591;51.446;5.404;2023-02-26T12:08:24;2.63;;;0.90;;
13048;SDS011;6591;51.446;5.404;2023-02-26T12:22:25;2.20;;;0.90;;
13048;SDS011;6591;51.446;5.404;2023-02-26T12:25:21;1.33;;;0.80;;
13048;SDS011;6591;51.446;5.404;2023-02-26T12:39:33;1.90;;;1.07;;
13048;SDS011;6591;51.446;5.404;2023-02-26T12:42:28;2.33;;;0.90;;
13048;SDS011;6591;51.446;5.404;2023-02-26T12:48:46;1.83;;;0.97;;
13048;SDS011;6591;51.446;5.404;2023-02-26T12:54:36;3.30;;;1.20;;
13048;SDS011;6591;51.446;5.404;2023-02-26T13:05:45;3.10;;;1.00;;
13048;SDS011;6591;51.446;5.404;2023-02-26T13:08:34;1.33;;;0.87;;
13048;SDS011;6591;51.446;5.404;2023-02-26T13:15:01;3.23;;;1.47;;
13048;SDS011;6591;51.446;5.404;2023-02-26T13:20:28;2.93;;;1.00;;
13048;SDS011;6591;51.446;5.404;2023-02-26T13:23:00;1.90;;;0.97;;
13048;SDS011;6591;51.446;5.404;2023-02-26T13:25:47;1.73;;;0.90;;
13048;SDS011;6591;51.446;5.404;2023-02-26T13:31:20;1.83;;;1.00;;
13048;SDS011;6591;51.446;5.404;2023-02-26T13:34:00;2.30;;;1.40;;
13048;SDS011;6591;51.446;5.404;2023-02-26T13:36:37;1.80;;;0.90;;
13048;SDS011;6591;51.446;5.404;2023-02-26T13:45:06;1.80;;;1.00;;
13048;SDS011;6591;51.446;5.404;2023-02-26T13:48:29;1.87;;;1.00;;
13048;SDS011;6591;51.446;5.404;2023-02-26T13:51:12;2.20;;;0.90;;
13048;SDS011;6591;51.446;5.404;2023-02-26T13:54:06;1.50;;;1.00;;
13048;SDS011;6591;51.446;5.404;2023-02-26T14:02:40;1.17;;;0.90;;
13048;SDS011;6591;51.446;5.404;2023-02-26T14:08:09;2.20;;;1.20;;
13048;SDS011;6591;51.446;5.404;2023-02-26T14:14:04;1.90;;;1.10;;
13048;SDS011;6591;51.446;5.404;2023-02-26T14:16:48;1.20;;;0.97;;
13048;SDS011;6591;51.446;5.404;2023-02-26T14:20:06;1.90;;;1.00;;
13048;SDS011;6591;51.446;5.404;2023-02-26T14:23:13;1.70;;;1.10;;
13048;SDS011;6591;51.446;5.404;2023-02-26T14:26:02;1.43;;;0.80;;
13048;SDS011;6591;51.446;5.404;2023-02-26T14:28:43;2.73;;;1.20;;
13048;SDS011;6591;51.446;5.404;2023-02-26T14:31:23;2.07;;;1.10;;
13048;SDS011;6591;51.446;5.404;2023-02-26T14:36:34;1.43;;;0.87;;
13048;SDS011;6591;51.446;5.404;2023-02-26T14:39:32;2.23;;;1.30;;
13048;SDS011;6591;51.446;5.404;2023-02-26T14:45:05;1.60;;;1.10;;
13048;SDS011;6591;51.446;5.404;2023-02-26T14:47:57;2.03;;;1.10;;
13048;SDS011;6591;51.446;5.404;2023-02-26T14:50:30;1.70;;;0.80;;
13048;SDS011;6591;51.446;5.404;2023-02-26T14:53:40;1.27;;;0.90;;
13048;SDS011;6591;51.446;5.404;2023-02-26T14:56:51;1.73;;;0.90;;
13048;SDS011;6591;51.446;5.404;2023-02-26T15:03:40;3.03;;;0.90;;
13048;SDS011;6591;51.446;5.404;2023-02-26T15:11:52;3.77;;;1.20;;
13048;SDS011;6591;51.446;5.404;2023-02-26T15:26:14;1.77;;;0.90;;
13048;SDS011;6591;51.446;5.404;2023-02-26T15:28:50;1.83;;;0.77;;
13048;SDS011;6591;51.446;5.404;2023-02-26T15:31:20;1.93;;;1.20;;
13048;SDS011;6591;51.446;5.404;2023-02-26T15:33:59;4.30;;;1.20;;
13048;SDS011;6591;51.446;5.404;2023-02-26T15:36:27;3.13;;;1.13;;
13048;SDS011;6591;51.446;5.404;2023-02-26T15:38:59;1.80;;;1.00;;
13048;SDS011;6591;51.446;5.404;2023-02-26T15:41:29;2.57;;;1.13;;
13048;SDS011;6591;51.446;5.404;2023-02-26T15:44:42;1.60;;;1.10;;
13048;SDS011;6591;51.446;5.404;2023-02-26T15:47:01;1.80;;;0.87;;
13048;SDS011;6591;51.446;5.404;2023-02-26T15:49:35;1.60;;;0.97;;
13048;SDS011;6591;51.446;5.404;2023-02-26T15:52:06;2.50;;;0.90;;
13048;SDS011;6591;51.446;5.404;2023-02-26T15:54:40;1.43;;;1.10;;
13048;SDS011;6591;51.446;5.404;2023-02-26T15:57:14;2.30;;;0.97;;
13048;SDS011;6591;51.446;5.404;2023-02-26T15:59:45;2.27;;;1.07;;
13048;SDS011;6591;51.446;5.404;2023-02-26T16:02:17;0.90;;;0.80;;
13048;SDS011;6591;51.446;5.404;2023-02-26T16:04:48;1.13;;;0.80;;
13048;SDS011;6591;51.446;5.404;2023-02-26T16:07:15;2.83;;;1.10;;
13048;SDS011;6591;51.446;5.404;2023-02-26T16:09:46;3.07;;;1.20;;
13048;SDS011;6591;51.446;5.404;2023-02-26T16:12:25;1.40;;;0.83;;
13048;SDS011;6591;51.446;5.404;2023-02-26T16:15:12;1.43;;;0.93;;
13048;SDS011;6591;51.446;5.404;2023-02-26T16:17:55;1.40;;;1.00;;
13048;SDS011;6591;51.446;5.404;2023-02-26T16:20:24;2.30;;;1.20;;
13048;SDS011;6591;51.446;5.404;2023-02-26T16:22:59;1.47;;;1.00;;
13048;SDS011;6591;51.446;5.404;2023-02-26T16:25:46;1.30;;;0.93;;
13048;SDS011;6591;51.446;5.404;2023-02-26T16:28:27;2.23;;;1.20;;
13048;SDS011;6591;51.446;5.404;2023-02-26T16:31:02;1.90;;;1.00;;
13048;SDS011;6591;51.446;5.404;2023-02-26T16:33:32;2.43;;;1.10;;
13048;SDS011;6591;51.446;5.404;2023-02-26T16:36:04;3.40;;;1.17;;
13048;SDS011;6591;51.446;5.404;2023-02-26T16:38:48;1.53;;;1.10;;
13048;SDS011;6591;51.446;5.404;2023-02-26T16:41:25;1.73;;;1.17;;
13048;SDS011;6591;51.446;5.404;2023-02-26T16:43:58;1.20;;;0.90;;
13048;SDS011;6591;51.446;5.404;2023-02-26T16:51:58;1.20;;;1.00;;
13048;SDS011;6591;51.446;5.404;2023-02-26T16:54:29;1.60;;;1.27;;
13048;SDS011;6591;51.446;5.404;2023-02-26T16:57:03;1.80;;;1.00;;
13048;SDS011;6591;51.446;5.404;2023-02-26T17:00:00;2.07;;;1.20;;
13048;SDS011;6591;51.446;5.404;2023-02-26T17:02:36;2.40;;;1.20;;
13048;SDS011;6591;51.446;5.404;2023-02-26T17:05:20;1.57;;;1.07;;
13048;SDS011;6591;51.446;5.404;2023-02-26T17:08:00;1.63;;;1.20;;
13048;SDS011;6591;51.446;5.404;2023-02-26T17:10:39;1.27;;;1.10;;
13048;SDS011;6591;51.446;5.404;2023-02-26T17:15:46;1.70;;;1.07;;
13048;SDS011;6591;51.446;5.404;2023-02-26T17:18:14;1.90;;;1.20;;
13048;SDS011;6591;51.446;5.404;2023-02-26T17:20:41;1.53;;;1.10;;
13048;SDS011;6591;51.446;5.404;2023-02-26T17:23:10;4.30;;;1.23;;
13048;SDS011;6591;51.446;5.404;2023-02-26T17:25:45;1.30;;;1.20;;
13048;SDS011;6591;51.446;5.404;2023-02-26T17:28:23;1.63;;;1.10;;
13048;SDS011;6591;51.446;5.404;2023-02-26T17:30:53;3.10;;;1.30;;
13048;SDS011;6591;51.446;5.404;2023-02-26T17:33:21;2.70;;;1.50;;
13048;SDS011;6591;51.446;5.404;2023-02-26T17:35:49;3.17;;;1.33;;
13048;SDS011;6591;51.446;5.404;2023-02-26T17:38:39;2.40;;;1.40;;
13048;SDS011;6591;51.446;5.404;2023-02-26T17:41:15;1.80;;;1.30;;
13048;SDS011;6591;51.446;5.404;2023-02-26T17:43:44;1.93;;;1.23;;
13048;SDS011;6591;51.446;5.404;2023-02-26T17:46:12;3.10;;;1.87;;
13048;SDS011;6591;51.446;5.404;2023-02-26T17:48:39;2.97;;;1.40;;
13048;SDS011;6591;51.446;5.404;2023-02-26T17:51:08;4.13;;;1.50;;
13048;SDS011;6591;51.446;5.404;2023-02-26T17:53:39;1.60;;;1.30;;
13048;SDS011;6591;51.446;5.404;2023-02-26T17:56:10;2.33;;;1.40;;
13048;SDS011;6591;51.446;5.404;2023-02-26T17:58:52;3.73;;;1.47;;
13048;SDS011;6591;51.446;5.404;2023-02-26T18:01:21;3.47;;;1.47;;
13048;SDS011;6591;51.446;5.404;2023-02-26T18:03:49;2.73;;;1.50;;
13048;SDS011;6591;51.446;5.404;2023-02-26T18:06:17;1.70;;;1.57;;
13048;SDS011;6591;51.446;5.404;2023-02-26T18:08:44;2.97;;;1.80;;
13048;SDS011;6591;51.446;5.404;2023-02-26T18:11:14;2.17;;;1.50;;
13048;SDS011;6591;51.446;5.404;2023-02-26T18:13:45;2.03;;;1.40;;
13048;SDS011;6591;51.446;5.404;2023-02-26T18:16:16;4.17;;;1.67;;
13048;SDS011;6591;51.446;5.404;2023-02-26T18:18:52;2.83;;;1.73;;
13048;SDS011;6591;51.446;5.404;2023-02-26T18:21:19;2.53;;;1.60;;
13048;SDS011;6591;51.446;5.404;2023-02-26T18:23:46;2.40;;;1.60;;
13048;SDS011;6591;51.446;5.404;2023-02-26T18:26:14;3.33;;;1.60;;
13048;SDS011;6591;51.446;5.404;2023-02-26T18:28:48;2.00;;;1.40;;
13048;SDS011;6591;51.446;5.404;2023-02-26T18:31:16;1.83;;;1.33;;
13048;SDS011;6591;51.446;5.404;2023-02-26T18:33:45;1.30;;;1.20;;
13048;SDS011;6591;51.446;5.404;2023-02-26T18:36:19;2.47;;;1.43;;
13048;SDS011;6591;51.446;5.404;2023-02-26T18:39:03;1.93;;;1.27;;
13048;SDS011;6591;51.446;5.404;2023-02-26T18:41:34;2.00;;;1.40;;
13048;SDS011;6591;51.446;5.404;2023-02-26T18:44:02;4.57;;;1.83;;
13048;SDS011;6591;51.446;5.404;2023-02-26T18:46:30;1.73;;;1.33;;
13048;SDS011;6591;51.446;5.404;2023-02-26T18:49:00;3.30;;;1.93;;
13048;SDS011;6591;51.446;5.404;2023-02-26T18:51:29;3.13;;;1.73;;